Westview Chinook — VG3278 — position and weather

sailwx.info

Track history (hours):
 
Tides and Currents Weather Stations Pressure Air Temp Water Temp Dewpoint Dewpoint Depression Visibility Wind Speed Wind Dir Waves Ship Positions

Westview Chinook

Last reported at 2015-Mar-06 05:33 UTC. Time now 2015-Mar-06 06:02 UTC.
Position N 49°09' W 122°58'.

Length 16 m; draft 3.5 m.

Type: Towing. MMSI: 316005622.

Date/timePositionNaut miles runAvg speedWind from/ knotsBaromVisibWave heightAir tempDewpointWater temp
2015-Mar-06 05:33N 49°09' W 122°58'4 4.5
2015-Mar-06 04:34N 49°13' W 122°53'6 5.9
2015-Mar-06 03:33N 49°13' W 122°44'0 0.0
2015-Mar-06 02:33N 49°13' W 122°44'2 1.7
2015-Mar-06 01:29N 49°14' W 122°46'0 0.1
2015-Mar-05 22:33N 49°14' W 122°46'6 6.0
2015-Mar-05 21:33N 49°11' W 122°55'2 2.0
2015-Mar-05 20:33N 49°11' W 122°58'5 5.0
2015-Mar-05 19:33N 49°12' W 123°05'0 0.1
2015-Mar-05 18:33N 49°12' W 123°06'2 1.7
2015-Mar-05 17:33N 49°12' W 123°08'4 4.4
2015-Mar-05 16:33N 49°14' W 123°14'5 4.6
2015-Mar-05 15:33N 49°12' W 123°08'0 0.5
2015-Mar-05 14:33N 49°12' W 123°07'5 4.8
2015-Mar-05 13:33N 49°11' W 122°60'4 3.6
2015-Mar-05 12:33N 49°12' W 122°54'1 1.2
2015-Mar-05 11:33N 49°13' W 122°53'7 7.2
2015-Mar-05 10:34N 49°12' W 123°04'2 2.1
2015-Mar-05 09:34N 49°12' W 123°07'2 2.3
2015-Mar-05 08:33N 49°13' W 123°11'6 5.8
2015-Mar-05 07:33N 49°16' W 123°18'3 3.0
2015-Mar-05 06:33N 49°17' W 123°22'1 1.3
2015-Mar-05 05:34N 49°19' W 123°23'6 6.3
2015-Mar-05 04:33N 49°15' W 123°15'5 4.6
2015-Mar-05 03:33N 49°13' W 123°09'6 6.1
2015-Mar-05 02:33N 49°16' W 123°17'10 9.9
2015-Mar-05 01:33N 49°16' W 123°33'1010.0
2015-Mar-05 00:33N 49°13' W 123°47'6 5.6
2015-Mar-04 23:33N 49°09' W 123°53'6 6.1
2015-Mar-04 22:33N 49°13' W 123°46'8 8.2
2015-Mar-04 21:33N 49°11' W 123°34'8 7.9
2015-Mar-04 20:33N 49°08' W 123°23'9 8.6
2015-Mar-04 19:33N 49°07' W 123°10'9 8.6
2015-Mar-04 18:33N 49°09' W 122°58'4 4.1
2015-Mar-04 17:33N 49°13' W 122°54'0 0.0
2015-Mar-04 16:33N 49°13' W 122°54'0 0.0
2015-Mar-04 15:33N 49°13' W 122°54'0 0.0
2015-Mar-04 14:33N 49°13' W 122°54'0 0.0
2015-Mar-04 13:33N 49°13' W 122°54'7 6.7
2015-Mar-04 12:33N 49°09' W 123°02'2 2.4
2015-Mar-04 11:33N 49°07' W 123°05'5 5.3
2015-Mar-04 10:33N 49°09' W 122°57'6 6.2
2015-Mar-04 09:33N 49°13' W 122°50'7 6.8
2015-Mar-04 08:33N 49°12' W 122°40'2 2.0
2015-Mar-04 07:33N 49°11' W 122°42'2 2.4
2015-Mar-04 06:33N 49°13' W 122°44'5 5.1
2015-Mar-04 05:33N 49°13' W 122°52'5 5.1
2015-Mar-04 04:33N 49°09' W 122°58'0 0.3
2015-Mar-04 03:33N 49°09' W 122°58'5 5.2
2015-Mar-04 02:33N 49°07' W 123°06'3 3.0
2015-Mar-04 01:33N 49°07' W 123°10'6 5.9
2015-Mar-04 00:33N 49°04' W 123°18'6 6.4
2015-Mar-03 23:33N 49°01' W 123°09'0 0.2
2015-Mar-03 22:33N 49°01' W 123°09'0 0.4
2015-Mar-03 21:33N 49°00' W 123°09'0 0.1
2015-Mar-03 20:33N 49°00' W 123°10'1 1.1
2015-Mar-03 19:34N 49°01' W 123°09'0 0.0
2015-Mar-03 18:34N 49°01' W 123°09'0 0.0
2015-Mar-03 17:33N 49°01' W 123°09'0 0.0
2015-Mar-03 16:34N 49°01' W 123°09'0 0.0
2015-Mar-03 15:33N 49°01' W 123°09'0 0.0
2015-Mar-03 14:33N 49°01' W 123°09'0 0.0
2015-Mar-03 13:34N 49°01' W 123°09'2 2.0
2015-Mar-03 12:33N 49°01' W 123°12'7 6.8
2015-Mar-03 11:33N 49°07' W 123°16'8 8.4
2015-Mar-03 10:34N 49°08' W 123°04'4 4.0
2015-Mar-03 09:33N 49°10' W 122°58'0 0.0
2015-Mar-03 08:33N 49°10' W 122°58'0 0.0
2015-Mar-03 07:33N 49°10' W 122°58'2 2.1
2015-Mar-03 06:33N 49°11' W 122°55'2 1.8
2015-Mar-03 05:33N 49°09' W 122°57'3 3.1
2015-Mar-03 04:33N 49°09' W 123°02'6 6.0
2015-Mar-03 03:33N 49°12' W 122°54'7 7.1
2015-Mar-03 02:33N 49°12' W 122°43'3 2.6
2015-Mar-03 01:33N 49°14' W 122°46'0 0.2
2015-Mar-03 00:33N 49°14' W 122°46'1 1.1
2015-Mar-02 23:33N 49°13' W 122°46'8 7.8
2015-Mar-02 22:33N 49°12' W 122°57'5 5.4
2015-Mar-02 21:33N 49°12' W 123°05'2 1.8
2015-Mar-02 20:33N 49°12' W 123°08'6 6.6
2015-Mar-02 19:33N 49°11' W 122°58'3 2.8
2015-Mar-02 18:33N 49°12' W 122°55'0 0.0
2015-Mar-02 17:33N 49°12' W 122°55'0 0.0
2015-Mar-02 16:33N 49°12' W 122°55'1 0.6
2015-Mar-02 15:33N 49°12' W 122°55'4 4.0
2015-Mar-02 14:33N 49°09' W 123°00'0 0.3
2015-Mar-02 13:34N 49°09' W 123°00'1 1.2
2015-Mar-02 12:34N 49°09' W 123°02'5 5.2
2015-Mar-02 11:34N 49°07' W 123°09'6 6.1
2015-Mar-02 10:34N 49°06' W 123°18'6 5.6
2015-Mar-02 09:33N 49°07' W 123°27'6 5.6
2015-Mar-02 08:34N 49°09' W 123°35'6 6.0
2015-Mar-02 07:33N 49°11' W 123°44'6 6.0
2015-Mar-02 06:33N 49°12' W 123°53'1 0.6
2015-Mar-02 05:33N 49°11' W 123°53'9 9.4
2015-Mar-02 04:34N 49°15' W 123°40'10 9.6
2015-Mar-02 03:34N 49°17' W 123°26'10 9.7
2015-Mar-02 02:34N 49°19' W 123°11'6 6.2
2015-Mar-02 01:33N 49°18' W 123°02'0 0.0
2015-Mar-02 00:33N 49°18' W 123°02'0 0.0
2015-Mar-01 23:34N 49°18' W 123°02'0 0.0
2015-Mar-01 22:33N 49°18' W 123°02'0 0.0
2015-Mar-01 21:33N 49°18' W 123°02'0 0.0
2015-Mar-01 20:34N 49°18' W 123°02'0 0.0
2015-Mar-01 19:34N 49°18' W 123°02'0 0.0
2015-Mar-01 18:33N 49°18' W 123°02'0 0.0
2015-Mar-01 17:34N 49°18' W 123°02'0 0.1
2015-Mar-01 16:33N 49°18' W 123°02'0 0.0
2015-Mar-01 15:34N 49°18' W 123°02'0 0.0
2015-Mar-01 14:34N 49°18' W 123°02'0 0.0
2015-Mar-01 13:34N 49°18' W 123°02'0 0.0
2015-Mar-01 12:33N 49°18' W 123°02'0 0.0
2015-Mar-01 11:33N 49°18' W 123°02'0 0.0
2015-Mar-01 10:34N 49°18' W 123°02'0 0.0
2015-Mar-01 09:34N 49°18' W 123°02'0 0.0
2015-Mar-01 08:34N 49°18' W 123°02'0 0.0
2015-Mar-01 07:34N 49°18' W 123°02'0 0.0
2015-Mar-01 06:34N 49°18' W 123°02'0 0.0
2015-Mar-01 05:34N 49°18' W 123°02'0 0.0
2015-Mar-01 04:34N 49°18' W 123°02'0 0.0
2015-Mar-01 03:34N 49°18' W 123°02'0 0.0
2015-Mar-01 02:34N 49°18' W 123°02'0 0.0
2015-Mar-01 01:34N 49°18' W 123°02'0 0.0
2015-Mar-01 00:34N 49°18' W 123°02'0 0.0
2015-Feb-28 23:34N 49°18' W 123°02'0 0.0
2015-Feb-28 22:34N 49°18' W 123°02'0 0.0
2015-Feb-28 21:34N 49°18' W 123°02'0 0.0
2015-Feb-28 20:34N 49°18' W 123°02'0 0.0
2015-Feb-28 19:34N 49°18' W 123°02'0 0.0
2015-Feb-28 18:34N 49°18' W 123°02'0 0.0
2015-Feb-28 17:34N 49°18' W 123°02'0 0.0
2015-Feb-28 16:34N 49°18' W 123°02'0 0.0
2015-Feb-28 15:34N 49°18' W 123°02'0 0.0
2015-Feb-28 14:33N 49°18' W 123°02'0 0.0
2015-Feb-28 13:34N 49°18' W 123°02'0 0.0
2015-Feb-28 12:34N 49°18' W 123°02'0 0.0
2015-Feb-28 11:34N 49°18' W 123°02'0 0.0
2015-Feb-28 10:34N 49°18' W 123°02'0 0.0
2015-Feb-28 09:34N 49°18' W 123°02'0 0.0
2015-Feb-28 08:34N 49°18' W 123°02'0 0.0
2015-Feb-28 07:33N 49°18' W 123°02'0 0.0
2015-Feb-28 06:34N 49°18' W 123°02'0 0.0
2015-Feb-28 05:33N 49°18' W 123°02'0 0.0
2015-Feb-28 04:34N 49°18' W 123°02'0 0.0
2015-Feb-28 03:34N 49°18' W 123°02'0 0.0
2015-Feb-28 02:34N 49°18' W 123°02'0 0.0
2015-Feb-28 01:34N 49°18' W 123°02'0 0.0
2015-Feb-28 00:34N 49°18' W 123°02'0 0.0
2015-Feb-27 23:33N 49°18' W 123°02'0 0.0
2015-Feb-27 22:33N 49°18' W 123°02'0 0.0
2015-Feb-27 21:33N 49°18' W 123°02'0 0.0
2015-Feb-27 20:33N 49°18' W 123°02'0 0.0
2015-Feb-27 19:33N 49°18' W 123°02'0 0.0
2015-Feb-27 18:34N 49°18' W 123°02'0 0.0
2015-Feb-27 17:34N 49°18' W 123°02'0 0.0
2015-Feb-27 16:34N 49°18' W 123°02'0 0.0
2015-Feb-27 15:34N 49°18' W 123°02'0 0.0
2015-Feb-27 14:34N 49°18' W 123°02'0 0.0
2015-Feb-27 13:34N 49°18' W 123°02'0 0.0
2015-Feb-27 12:33N 49°18' W 123°02'0 0.0
2015-Feb-27 11:34N 49°18' W 123°02'5 5.2
2015-Feb-27 10:34N 49°19' W 123°10'10 9.5
2015-Feb-27 09:33N 49°17' W 123°24'10 9.6
2015-Feb-27 08:33N 49°15' W 123°38'9 9.4
2015-Feb-27 07:33N 49°12' W 123°52'1 0.6
2015-Feb-27 06:33N 49°12' W 123°53'8 8.2
2015-Feb-27 05:33N 49°10' W 123°40'8 8.5
2015-Feb-27 04:33N 49°08' W 123°28'8 7.9
2015-Feb-27 03:34N 49°07' W 123°16'9 9.3
2015-Feb-27 02:33N 49°09' W 123°02'8 7.5
2015-Feb-27 01:34N 49°13' W 122°52'4 2.0
2015-Feb-26 23:26N 49°14' W 122°46'4 4.8
2015-Feb-26 22:33N 49°13' W 122°52'0 0.0
2015-Feb-26 21:33N 49°13' W 122°52'5 5.0
2015-Feb-26 20:33N 49°11' W 122°59'4 4.3
2015-Feb-26 19:33N 49°12' W 123°05'2 1.9
2015-Feb-26 18:33N 49°12' W 123°08'5 4.6
2015-Feb-26 17:34N 49°12' W 123°01'6 6.0
2015-Feb-26 16:33N 49°14' W 122°52'0 0.0
2015-Feb-26 15:33N 49°14' W 122°52'5 4.9
2015-Feb-26 14:33N 49°10' W 122°57'3 3.3
2015-Feb-26 13:33N 49°09' W 123°02'2 2.2
2015-Feb-26 12:33N 49°07' W 123°04'4 4.5
2015-Feb-26 11:33N 49°07' W 123°11'5 4.9
2015-Feb-26 10:33N 49°06' W 123°18'5 5.4
2015-Feb-26 09:33N 49°07' W 123°27'6 5.9
2015-Feb-26 08:33N 49°09' W 123°35'6 5.7
2015-Feb-26 07:33N 49°11' W 123°43'6 5.9
2015-Feb-26 06:33N 49°12' W 123°52'1 0.8
2015-Feb-26 05:31N 49°11' W 123°53'9 9.3
2015-Feb-26 04:33N 49°10' W 123°39'1010.4
2015-Feb-26 03:33N 49°07' W 123°24'1010.3
2015-Feb-26 02:33N 49°07' W 123°09'1111.3
2015-Feb-26 01:33N 49°12' W 122°54'0 0.3
2015-Feb-26 00:33N 49°13' W 122°54'0 0.0
2015-Feb-25 23:33N 49°13' W 122°54'3 2.9
2015-Feb-25 22:34N 49°11' W 122°58'2 1.7
2015-Feb-25 21:34N 49°11' W 122°55'6 5.9
2015-Feb-25 20:33N 49°14' W 122°47'1 0.2
2015-Feb-25 16:15N 49°14' W 122°46'0 0.0
2015-Feb-25 15:30N 49°14' W 122°46'0 0.0
2015-Feb-25 12:17N 49°14' W 122°46'3 1.6
2015-Feb-25 10:33N 49°13' W 122°50'6 5.8
2015-Feb-25 09:33N 49°09' W 122°57'6 6.1
2015-Feb-25 08:33N 49°13' W 122°49'5 5.3
2015-Feb-25 07:33N 49°11' W 122°42'4 3.5
2015-Feb-25 06:33N 49°13' W 122°47'7 6.5
2015-Feb-25 05:33N 49°10' W 122°56'1 1.3
2015-Feb-25 04:33N 49°09' W 122°57'5 5.3
2015-Feb-25 03:33N 49°13' W 122°52'4 1.5
2015-Feb-25 01:06N 49°14' W 122°46'3 5.1
2015-Feb-25 00:33N 49°13' W 122°50'4 3.9
2015-Feb-24 23:33N 49°11' W 122°55'0 0.0
2015-Feb-24 22:33N 49°11' W 122°55'0 0.0
2015-Feb-24 21:34N 49°11' W 122°55'0 0.0
2015-Feb-24 20:33N 49°11' W 122°55'1 1.0
2015-Feb-24 19:33N 49°12' W 122°56'2 2.3
2015-Feb-24 18:33N 49°10' W 122°57'4 3.6
2015-Feb-24 17:33N 49°09' W 123°02'0 0.0
2015-Feb-24 16:33N 49°09' W 123°02'5 4.9
2015-Feb-24 15:33N 49°11' W 122°55'2 1.9
2015-Feb-24 14:33N 49°13' W 122°54'0 0.0
2015-Feb-24 13:33N 49°13' W 122°54'4 3.7
2015-Feb-24 12:33N 49°10' W 122°57'4 3.6
2015-Feb-24 11:33N 49°12' W 122°54'1 0.8
2015-Feb-24 10:33N 49°12' W 122°54'3 2.7
2015-Feb-24 09:33N 49°10' W 122°57'3 2.7
2015-Feb-24 08:33N 49°12' W 122°55'6 6.1
2015-Feb-24 07:33N 49°13' W 122°45'4 3.6
2015-Feb-24 06:33N 49°11' W 122°41'  
Track history (hours):
 
Tides and Currents Weather Stations Pressure Air Temp Water Temp Dewpoint Dewpoint Depression Visibility Wind Speed Wind Dir Waves Ship Positions

Westview Chinook

Last reported at 2015-Mar-06 05:33 UTC. Time now 2015-Mar-06 06:02 UTC.
Position N 49°09' W 122°58'.

Length 16 m; draft 3.5 m.

Type: Towing. MMSI: 316005622.

Date/timePositionNaut miles runAvg speedWind from/ knotsBaromVisibWave heightAir tempDewpointWater temp
2015-Mar-06 05:33N 49°09' W 122°58'4 4.5
2015-Mar-06 04:34N 49°13' W 122°53'6 5.9
2015-Mar-06 03:33N 49°13' W 122°44'0 0.0
2015-Mar-06 02:33N 49°13' W 122°44'2 1.7
2015-Mar-06 01:29N 49°14' W 122°46'0 0.1
2015-Mar-05 22:33N 49°14' W 122°46'6 6.0
2015-Mar-05 21:33N 49°11' W 122°55'2 2.0
2015-Mar-05 20:33N 49°11' W 122°58'5 5.0
2015-Mar-05 19:33N 49°12' W 123°05'0 0.1
2015-Mar-05 18:33N 49°12' W 123°06'2 1.7
2015-Mar-05 17:33N 49°12' W 123°08'4 4.4
2015-Mar-05 16:33N 49°14' W 123°14'5 4.6
2015-Mar-05 15:33N 49°12' W 123°08'0 0.5
2015-Mar-05 14:33N 49°12' W 123°07'5 4.8
2015-Mar-05 13:33N 49°11' W 122°60'4 3.6
2015-Mar-05 12:33N 49°12' W 122°54'1 1.2
2015-Mar-05 11:33N 49°13' W 122°53'7 7.2
2015-Mar-05 10:34N 49°12' W 123°04'2 2.1
2015-Mar-05 09:34N 49°12' W 123°07'2 2.3
2015-Mar-05 08:33N 49°13' W 123°11'6 5.8
2015-Mar-05 07:33N 49°16' W 123°18'3 3.0
2015-Mar-05 06:33N 49°17' W 123°22'1 1.3
2015-Mar-05 05:34N 49°19' W 123°23'6 6.3
2015-Mar-05 04:33N 49°15' W 123°15'5 4.6
2015-Mar-05 03:33N 49°13' W 123°09'6 6.1
2015-Mar-05 02:33N 49°16' W 123°17'10 9.9
2015-Mar-05 01:33N 49°16' W 123°33'1010.0
2015-Mar-05 00:33N 49°13' W 123°47'6 5.6
2015-Mar-04 23:33N 49°09' W 123°53'6 6.1
2015-Mar-04 22:33N 49°13' W 123°46'8 8.2
2015-Mar-04 21:33N 49°11' W 123°34'8 7.9
2015-Mar-04 20:33N 49°08' W 123°23'9 8.6
2015-Mar-04 19:33N 49°07' W 123°10'9 8.6
2015-Mar-04 18:33N 49°09' W 122°58'4 4.1
2015-Mar-04 17:33N 49°13' W 122°54'0 0.0
2015-Mar-04 16:33N 49°13' W 122°54'0 0.0
2015-Mar-04 15:33N 49°13' W 122°54'0 0.0
2015-Mar-04 14:33N 49°13' W 122°54'0 0.0
2015-Mar-04 13:33N 49°13' W 122°54'7 6.7
2015-Mar-04 12:33N 49°09' W 123°02'2 2.4
2015-Mar-04 11:33N 49°07' W 123°05'5 5.3
2015-Mar-04 10:33N 49°09' W 122°57'6 6.2
2015-Mar-04 09:33N 49°13' W 122°50'7 6.8
2015-Mar-04 08:33N 49°12' W 122°40'2 2.0
2015-Mar-04 07:33N 49°11' W 122°42'2 2.4
2015-Mar-04 06:33N 49°13' W 122°44'5 5.1
2015-Mar-04 05:33N 49°13' W 122°52'5 5.1
2015-Mar-04 04:33N 49°09' W 122°58'0 0.3
2015-Mar-04 03:33N 49°09' W 122°58'5 5.2
2015-Mar-04 02:33N 49°07' W 123°06'3 3.0
2015-Mar-04 01:33N 49°07' W 123°10'6 5.9
2015-Mar-04 00:33N 49°04' W 123°18'6 6.4
2015-Mar-03 23:33N 49°01' W 123°09'0 0.2
2015-Mar-03 22:33N 49°01' W 123°09'0 0.4
2015-Mar-03 21:33N 49°00' W 123°09'0 0.1
2015-Mar-03 20:33N 49°00' W 123°10'1 1.1
2015-Mar-03 19:34N 49°01' W 123°09'0 0.0
2015-Mar-03 18:34N 49°01' W 123°09'0 0.0
2015-Mar-03 17:33N 49°01' W 123°09'0 0.0
2015-Mar-03 16:34N 49°01' W 123°09'0 0.0
2015-Mar-03 15:33N 49°01' W 123°09'0 0.0
2015-Mar-03 14:33N 49°01' W 123°09'0 0.0
2015-Mar-03 13:34N 49°01' W 123°09'2 2.0
2015-Mar-03 12:33N 49°01' W 123°12'7 6.8
2015-Mar-03 11:33N 49°07' W 123°16'8 8.4
2015-Mar-03 10:34N 49°08' W 123°04'4 4.0
2015-Mar-03 09:33N 49°10' W 122°58'0 0.0
2015-Mar-03 08:33N 49°10' W 122°58'0 0.0
2015-Mar-03 07:33N 49°10' W 122°58'2 2.1
2015-Mar-03 06:33N 49°11' W 122°55'2 1.8
2015-Mar-03 05:33N 49°09' W 122°57'3 3.1
2015-Mar-03 04:33N 49°09' W 123°02'6 6.0
2015-Mar-03 03:33N 49°12' W 122°54'7 7.1
2015-Mar-03 02:33N 49°12' W 122°43'3 2.6
2015-Mar-03 01:33N 49°14' W 122°46'0 0.2
2015-Mar-03 00:33N 49°14' W 122°46'1 1.1
2015-Mar-02 23:33N 49°13' W 122°46'8 7.8
2015-Mar-02 22:33N 49°12' W 122°57'5 5.4
2015-Mar-02 21:33N 49°12' W 123°05'2 1.8
2015-Mar-02 20:33N 49°12' W 123°08'6 6.6
2015-Mar-02 19:33N 49°11' W 122°58'3 2.8
2015-Mar-02 18:33N 49°12' W 122°55'0 0.0
2015-Mar-02 17:33N 49°12' W 122°55'0 0.0
2015-Mar-02 16:33N 49°12' W 122°55'1 0.6
2015-Mar-02 15:33N 49°12' W 122°55'4 4.0
2015-Mar-02 14:33N 49°09' W 123°00'0 0.3
2015-Mar-02 13:34N 49°09' W 123°00'1 1.2
2015-Mar-02 12:34N 49°09' W 123°02'5 5.2
2015-Mar-02 11:34N 49°07' W 123°09'6 6.1
2015-Mar-02 10:34N 49°06' W 123°18'6 5.6
2015-Mar-02 09:33N 49°07' W 123°27'6 5.6
2015-Mar-02 08:34N 49°09' W 123°35'6 6.0
2015-Mar-02 07:33N 49°11' W 123°44'6 6.0
2015-Mar-02 06:33N 49°12' W 123°53'1 0.6
2015-Mar-02 05:33N 49°11' W 123°53'9 9.4
2015-Mar-02 04:34N 49°15' W 123°40'10 9.6
2015-Mar-02 03:34N 49°17' W 123°26'10 9.7
2015-Mar-02 02:34N 49°19' W 123°11'6 6.2
2015-Mar-02 01:33N 49°18' W 123°02'0 0.0
2015-Mar-02 00:33N 49°18' W 123°02'0 0.0
2015-Mar-01 23:34N 49°18' W 123°02'0 0.0
2015-Mar-01 22:33N 49°18' W 123°02'0 0.0
2015-Mar-01 21:33N 49°18' W 123°02'0 0.0
2015-Mar-01 20:34N 49°18' W 123°02'0 0.0
2015-Mar-01 19:34N 49°18' W 123°02'0 0.0
2015-Mar-01 18:33N 49°18' W 123°02'0 0.0
2015-Mar-01 17:34N 49°18' W 123°02'0 0.1
2015-Mar-01 16:33N 49°18' W 123°02'0 0.0
2015-Mar-01 15:34N 49°18' W 123°02'0 0.0
2015-Mar-01 14:34N 49°18' W 123°02'0 0.0
2015-Mar-01 13:34N 49°18' W 123°02'0 0.0
2015-Mar-01 12:33N 49°18' W 123°02'0 0.0
2015-Mar-01 11:33N 49°18' W 123°02'0 0.0
2015-Mar-01 10:34N 49°18' W 123°02'0 0.0
2015-Mar-01 09:34N 49°18' W 123°02'0 0.0
2015-Mar-01 08:34N 49°18' W 123°02'0 0.0
2015-Mar-01 07:34N 49°18' W 123°02'0 0.0
2015-Mar-01 06:34N 49°18' W 123°02'0 0.0
2015-Mar-01 05:34N 49°18' W 123°02'0 0.0
2015-Mar-01 04:34N 49°18' W 123°02'0 0.0
2015-Mar-01 03:34N 49°18' W 123°02'0 0.0
2015-Mar-01 02:34N 49°18' W 123°02'0 0.0
2015-Mar-01 01:34N 49°18' W 123°02'0 0.0
2015-Mar-01 00:34N 49°18' W 123°02'0 0.0
2015-Feb-28 23:34N 49°18' W 123°02'0 0.0
2015-Feb-28 22:34N 49°18' W 123°02'0 0.0
2015-Feb-28 21:34N 49°18' W 123°02'0 0.0
2015-Feb-28 20:34N 49°18' W 123°02'0 0.0
2015-Feb-28 19:34N 49°18' W 123°02'0 0.0
2015-Feb-28 18:34N 49°18' W 123°02'0 0.0
2015-Feb-28 17:34N 49°18' W 123°02'0 0.0
2015-Feb-28 16:34N 49°18' W 123°02'0 0.0
2015-Feb-28 15:34N 49°18' W 123°02'0 0.0
2015-Feb-28 14:33N 49°18' W 123°02'0 0.0
2015-Feb-28 13:34N 49°18' W 123°02'0 0.0
2015-Feb-28 12:34N 49°18' W 123°02'0 0.0
2015-Feb-28 11:34N 49°18' W 123°02'0 0.0
2015-Feb-28 10:34N 49°18' W 123°02'0 0.0
2015-Feb-28 09:34N 49°18' W 123°02'0 0.0
2015-Feb-28 08:34N 49°18' W 123°02'0 0.0
2015-Feb-28 07:33N 49°18' W 123°02'0 0.0
2015-Feb-28 06:34N 49°18' W 123°02'0 0.0
2015-Feb-28 05:33N 49°18' W 123°02'0 0.0
2015-Feb-28 04:34N 49°18' W 123°02'0 0.0
2015-Feb-28 03:34N 49°18' W 123°02'0 0.0
2015-Feb-28 02:34N 49°18' W 123°02'0 0.0
2015-Feb-28 01:34N 49°18' W 123°02'0 0.0
2015-Feb-28 00:34N 49°18' W 123°02'0 0.0
2015-Feb-27 23:33N 49°18' W 123°02'0 0.0
2015-Feb-27 22:33N 49°18' W 123°02'0 0.0
2015-Feb-27 21:33N 49°18' W 123°02'0 0.0
2015-Feb-27 20:33N 49°18' W 123°02'0 0.0
2015-Feb-27 19:33N 49°18' W 123°02'0 0.0
2015-Feb-27 18:34N 49°18' W 123°02'0 0.0
2015-Feb-27 17:34N 49°18' W 123°02'0 0.0
2015-Feb-27 16:34N 49°18' W 123°02'0 0.0
2015-Feb-27 15:34N 49°18' W 123°02'0 0.0
2015-Feb-27 14:34N 49°18' W 123°02'0 0.0
2015-Feb-27 13:34N 49°18' W 123°02'0 0.0
2015-Feb-27 12:33N 49°18' W 123°02'0 0.0
2015-Feb-27 11:34N 49°18' W 123°02'5 5.2
2015-Feb-27 10:34N 49°19' W 123°10'10 9.5
2015-Feb-27 09:33N 49°17' W 123°24'10 9.6
2015-Feb-27 08:33N 49°15' W 123°38'9 9.4
2015-Feb-27 07:33N 49°12' W 123°52'1 0.6
2015-Feb-27 06:33N 49°12' W 123°53'8 8.2
2015-Feb-27 05:33N 49°10' W 123°40'8 8.5
2015-Feb-27 04:33N 49°08' W 123°28'8 7.9
2015-Feb-27 03:34N 49°07' W 123°16'9 9.3
2015-Feb-27 02:33N 49°09' W 123°02'8 7.5
2015-Feb-27 01:34N 49°13' W 122°52'4 2.0
2015-Feb-26 23:26N 49°14' W 122°46'4 4.8
2015-Feb-26 22:33N 49°13' W 122°52'0 0.0
2015-Feb-26 21:33N 49°13' W 122°52'5 5.0
2015-Feb-26 20:33N 49°11' W 122°59'4 4.3
2015-Feb-26 19:33N 49°12' W 123°05'2 1.9
2015-Feb-26 18:33N 49°12' W 123°08'5 4.6
2015-Feb-26 17:34N 49°12' W 123°01'6 6.0
2015-Feb-26 16:33N 49°14' W 122°52'0 0.0
2015-Feb-26 15:33N 49°14' W 122°52'5 4.9
2015-Feb-26 14:33N 49°10' W 122°57'3 3.3
2015-Feb-26 13:33N 49°09' W 123°02'2 2.2
2015-Feb-26 12:33N 49°07' W 123°04'4 4.5
2015-Feb-26 11:33N 49°07' W 123°11'5 4.9
2015-Feb-26 10:33N 49°06' W 123°18'5 5.4
2015-Feb-26 09:33N 49°07' W 123°27'6 5.9
2015-Feb-26 08:33N 49°09' W 123°35'6 5.7
2015-Feb-26 07:33N 49°11' W 123°43'6 5.9
2015-Feb-26 06:33N 49°12' W 123°52'1 0.8
2015-Feb-26 05:31N 49°11' W 123°53'9 9.3
2015-Feb-26 04:33N 49°10' W 123°39'1010.4
2015-Feb-26 03:33N 49°07' W 123°24'1010.3
2015-Feb-26 02:33N 49°07' W 123°09'1111.3
2015-Feb-26 01:33N 49°12' W 122°54'0 0.3
2015-Feb-26 00:33N 49°13' W 122°54'0 0.0
2015-Feb-25 23:33N 49°13' W 122°54'3 2.9
2015-Feb-25 22:34N 49°11' W 122°58'2 1.7
2015-Feb-25 21:34N 49°11' W 122°55'6 5.9
2015-Feb-25 20:33N 49°14' W 122°47'1 0.2
2015-Feb-25 16:15N 49°14' W 122°46'0 0.0
2015-Feb-25 15:30N 49°14' W 122°46'0 0.0
2015-Feb-25 12:17N 49°14' W 122°46'3 1.6
2015-Feb-25 10:33N 49°13' W 122°50'6 5.8
2015-Feb-25 09:33N 49°09' W 122°57'6 6.1
2015-Feb-25 08:33N 49°13' W 122°49'5 5.3
2015-Feb-25 07:33N 49°11' W 122°42'4 3.5
2015-Feb-25 06:33N 49°13' W 122°47'7 6.5
2015-Feb-25 05:33N 49°10' W 122°56'1 1.3
2015-Feb-25 04:33N 49°09' W 122°57'5 5.3
2015-Feb-25 03:33N 49°13' W 122°52'4 1.5
2015-Feb-25 01:06N 49°14' W 122°46'3 5.1
2015-Feb-25 00:33N 49°13' W 122°50'4 3.9
2015-Feb-24 23:33N 49°11' W 122°55'0 0.0
2015-Feb-24 22:33N 49°11' W 122°55'0 0.0
2015-Feb-24 21:34N 49°11' W 122°55'0 0.0
2015-Feb-24 20:33N 49°11' W 122°55'1 1.0
2015-Feb-24 19:33N 49°12' W 122°56'2 2.3
2015-Feb-24 18:33N 49°10' W 122°57'4 3.6
2015-Feb-24 17:33N 49°09' W 123°02'0 0.0
2015-Feb-24 16:33N 49°09' W 123°02'5 4.9
2015-Feb-24 15:33N 49°11' W 122°55'2 1.9
2015-Feb-24 14:33N 49°13' W 122°54'0 0.0
2015-Feb-24 13:33N 49°13' W 122°54'4 3.7
2015-Feb-24 12:33N 49°10' W 122°57'4 3.6
2015-Feb-24 11:33N 49°12' W 122°54'1 0.8
2015-Feb-24 10:33N 49°12' W 122°54'3 2.7
2015-Feb-24 09:33N 49°10' W 122°57'3 2.7
2015-Feb-24 08:33N 49°12' W 122°55'6 6.1
2015-Feb-24 07:33N 49°13' W 122°45'4 3.6
2015-Feb-24 06:33N 49°11' W 122°41'  

Dump ship's entire track history